createdAt,value
2018-02-19T00:51:33.938Z,0.66
2018-02-19T00:52:33.773Z,0.72
2018-02-19T00:53:36.646Z,0.62
2018-02-19T00:55:34.175Z,0.64
2018-02-19T01:01:33.316Z,0.48
2018-02-19T01:02:33.584Z,0.50
2018-02-19T01:03:33.228Z,0.53
2018-02-19T01:04:33.155Z,0.50
2018-02-19T01:05:33.106Z,0.40
2018-02-19T01:06:33.018Z,0.43
2018-02-19T01:07:33.055Z,0.37
2018-02-19T01:08:33.031Z,0.44
2018-02-19T01:09:33.240Z,0.51
2018-02-19T01:10:32.962Z,0.45
2018-02-19T01:11:32.866Z,0.48
2018-02-19T01:12:32.861Z,0.45
2018-02-19T01:13:32.827Z,0.48
2018-02-19T01:14:32.796Z,0.53
2018-02-19T01:15:32.767Z,0.43
2018-02-19T01:16:33.042Z,0.43
2018-02-19T01:17:32.728Z,0.30
2018-02-19T01:18:32.690Z,0.43
2018-02-19T01:19:32.765Z,0.43
2018-02-19T01:20:32.644Z,0.45
2018-02-19T01:21:32.614Z,0.47
2018-02-19T01:22:32.713Z,0.48
2018-02-19T01:23:32.869Z,0.50
2018-02-19T01:24:32.590Z,0.45
2018-02-19T01:25:32.549Z,0.40
2018-02-19T01:26:32.559Z,0.37
2018-02-19T01:27:32.649Z,0.43
2018-02-19T01:28:32.625Z,0.37
2018-02-19T01:29:32.519Z,0.32
2018-02-19T01:30:32.782Z,0.37
2018-02-19T01:31:32.403Z,0.33
2018-02-19T01:32:32.383Z,0.35
2018-02-19T01:33:32.361Z,0.33
2018-02-19T01:34:32.399Z,0.33
2018-02-19T01:35:32.379Z,0.23
2018-02-19T01:36:32.354Z,0.25
2018-02-19T01:37:32.624Z,0.20
2018-02-19T01:38:32.299Z,0.22
2018-02-19T01:39:32.278Z,0.22
2018-02-19T01:40:32.257Z,0.22
2018-02-19T01:41:32.225Z,0.18
2018-02-19T01:42:32.087Z,0.15
2018-02-19T01:43:32.363Z,0.15
2018-02-19T01:44:32.039Z,0.29
2018-02-19T01:45:32.104Z,0.17
2018-02-19T01:46:32.054Z,0.22
2018-02-19T01:47:32.072Z,0.18
2018-02-19T01:48:31.938Z,0.14
2018-02-19T01:49:32.210Z,0.11
2018-02-19T01:50:31.936Z,0.11
2018-02-19T01:51:31.857Z,0.14
2018-02-19T01:52:31.917Z,0.11
2018-02-19T01:53:31.962Z,0.09
2018-02-19T01:54:31.964Z,0.05
2018-02-19T01:55:32.074Z,0.00
2018-02-19T01:56:31.780Z,0.04
2018-02-19T01:57:31.750Z,0.04
2018-02-19T01:58:31.799Z,0.02
2018-02-19T01:59:31.772Z,0.11
2018-02-19T02:00:31.744Z,0.04
2018-02-19T02:01:31.999Z,-0.07
2018-02-19T02:02:31.625Z,-0.07
2018-02-19T02:03:31.598Z,-0.07
2018-02-19T02:04:31.621Z,-0.07
2018-02-19T02:05:31.558Z,-0.03
2018-02-19T02:06:31.577Z,-0.07
2018-02-19T02:07:31.755Z,0.04
2018-02-19T02:08:31.448Z,0.08
2018-02-19T02:09:31.407Z,0.00
2018-02-19T02:10:31.380Z,0.09
2018-02-19T02:11:31.354Z,0.12
2018-02-19T02:12:31.423Z,0.09
2018-02-19T02:13:31.739Z,0.08
2018-02-19T02:14:31.398Z,0.11
2018-02-19T02:15:31.325Z,0.17
2018-02-19T02:16:31.309Z,0.15
2018-02-19T02:17:31.296Z,0.23
2018-02-19T02:18:31.181Z,0.23
2018-02-19T02:19:31.153Z,0.12
2018-02-19T02:20:31.436Z,0.18
2018-02-19T02:21:31.172Z,0.20
2018-02-19T02:22:31.154Z,0.22
2018-02-19T02:23:31.121Z,0.27
2018-02-19T02:24:31.032Z,0.23
2018-02-19T02:25:31.074Z,0.18
2018-02-19T02:26:30.996Z,0.18
2018-02-19T02:27:31.270Z,0.22
2018-02-19T02:28:31.070Z,0.23
2018-02-19T02:29:30.982Z,0.25
2018-02-19T02:30:30.894Z,0.20
2018-02-19T02:31:30.888Z,0.20
2018-02-19T02:32:30.832Z,0.20
2018-02-19T02:33:30.876Z,0.26
2018-02-19T02:34:31.179Z,0.25
2018-02-19T02:35:30.834Z,0.23
2018-02-19T02:36:30.807Z,0.27
2018-02-19T02:37:30.834Z,0.33
2018-02-19T02:38:30.721Z,0.37
2018-02-19T02:39:30.700Z,0.33
2018-02-19T02:40:30.719Z,0.40
2018-02-19T02:41:30.945Z,0.40
2018-02-19T02:42:30.621Z,0.41
2018-02-19T02:43:30.812Z,0.36
2018-02-19T02:44:30.658Z,0.30
2018-02-19T02:45:30.615Z,0.36
2018-02-19T02:46:30.605Z,0.33
2018-02-19T02:47:30.582Z,0.36
2018-02-19T02:48:30.838Z,0.36
2018-02-19T02:49:30.445Z,0.37
2018-02-19T02:50:30.470Z,0.36
2018-02-19T02:51:30.424Z,0.40
2018-02-19T02:52:30.334Z,0.37
2018-02-19T02:53:30.326Z,0.29
2018-02-19T02:55:30.323Z,0.40
2018-02-19T02:56:30.538Z,0.33
2018-02-19T02:57:30.221Z,0.35
2018-02-19T02:58:30.230Z,0.43
2018-02-19T02:59:30.196Z,0.43
2018-02-19T03:01:30.211Z,0.45
2018-02-19T03:02:30.506Z,0.44
2018-02-19T03:03:30.058Z,0.44
2018-02-19T03:04:30.147Z,0.47
2018-02-19T03:05:30.183Z,0.50
2018-02-19T03:06:30.094Z,0.47
2018-02-19T03:08:29.980Z,0.51
2018-02-19T03:09:30.298Z,0.53
2018-02-19T03:10:29.878Z,0.56
2018-02-19T03:11:29.856Z,0.55
2018-02-19T03:12:29.826Z,0.59
2018-02-19T03:13:29.886Z,0.62
2018-02-19T03:14:29.777Z,0.62
2018-02-19T03:15:30.050Z,0.55
2018-02-19T03:16:29.728Z,0.53
2018-02-19T03:17:29.756Z,0.59
2018-02-19T03:18:29.749Z,0.60
2018-02-19T03:19:29.733Z,0.60
2018-02-19T03:20:29.626Z,0.64
2018-02-19T03:21:29.928Z,0.56
2018-02-19T03:22:29.583Z,0.62
2018-02-19T03:23:29.551Z,0.70
2018-02-19T03:24:29.571Z,0.66
2018-02-19T03:25:29.543Z,0.62
2018-02-19T03:26:29.529Z,0.63
2018-02-19T03:27:29.847Z,0.67
2018-02-19T03:28:29.490Z,0.74
2018-02-19T03:29:29.448Z,0.80
2018-02-19T03:30:29.485Z,0.67
2018-02-19T03:31:29.433Z,0.62
2018-02-19T03:32:29.437Z,0.69
2018-02-19T03:33:29.828Z,0.64
2018-02-19T03:34:29.372Z,0.60
2018-02-19T03:35:29.308Z,0.70
2018-02-19T03:36:29.272Z,0.70
2018-02-19T03:37:29.245Z,0.69
2018-02-19T03:38:29.180Z,0.70
2018-02-19T03:39:29.521Z,0.69
2018-02-19T03:40:29.131Z,0.63
2018-02-19T03:41:29.103Z,0.73
2018-02-19T03:42:29.077Z,0.80
2018-02-19T03:43:29.053Z,0.78
2018-02-19T03:44:29.029Z,0.73
2018-02-19T03:45:29.006Z,0.73
2018-02-19T03:46:29.325Z,0.80
2018-02-19T03:47:28.953Z,0.78
2018-02-19T03:48:29.004Z,0.80
2018-02-19T03:49:28.978Z,0.64
2018-02-19T03:50:28.902Z,0.63
2018-02-19T03:51:28.934Z,0.74
2018-02-19T03:52:28.907Z,0.64
2018-02-19T03:53:29.177Z,0.70
2018-02-19T03:54:28.780Z,0.66
2018-02-19T03:55:28.832Z,0.62
2018-02-19T03:56:28.749Z,0.66
2018-02-19T03:57:28.777Z,0.63
2018-02-19T03:58:28.682Z,0.64
2018-02-19T04:00:28.752Z,0.67
2018-02-19T04:01:29.045Z,0.69
2018-02-19T04:02:28.651Z,0.67
2018-02-19T04:03:28.555Z,0.66
2018-02-19T04:04:28.607Z,0.62
2018-02-19T04:05:28.577Z,0.66
2018-02-19T04:06:28.483Z,0.69
2018-02-19T04:07:28.535Z,0.67
2018-02-19T04:08:28.881Z,0.73
2018-02-19T04:09:28.529Z,0.73
2018-02-19T04:10:28.550Z,0.80
2018-02-19T04:11:28.377Z,0.74
2018-02-19T04:14:28.473Z,0.73
2018-02-19T04:15:28.558Z,0.78
2018-02-19T04:16:28.244Z,0.66
2018-02-19T04:17:28.212Z,0.76
2018-02-19T04:18:28.192Z,0.70
2018-02-19T04:19:28.238Z,0.66
2018-02-19T04:20:28.133Z,0.69
2018-02-19T04:21:28.128Z,0.85
2018-02-19T04:22:28.385Z,0.90
2018-02-19T04:23:28.060Z,0.74
2018-02-19T04:24:28.040Z,0.80
2018-02-19T04:25:28.011Z,0.82
2018-02-19T04:26:27.986Z,0.74
2018-02-19T04:27:28.013Z,0.82
2018-02-19T04:28:28.238Z,0.82
2018-02-19T04:29:27.911Z,0.85
2018-02-19T04:30:27.897Z,0.73
2018-02-19T04:31:27.862Z,0.78
2018-02-19T04:32:27.927Z,0.80
2018-02-19T04:33:27.901Z,0.82
2018-02-19T04:34:28.180Z,0.78
2018-02-19T04:35:27.807Z,0.73
2018-02-19T04:36:27.807Z,0.74
2018-02-19T04:37:27.833Z,0.74
2018-02-19T04:38:27.773Z,0.80
2018-02-19T04:39:27.663Z,0.76
2018-02-19T04:40:27.938Z,0.76
2018-02-19T04:41:27.730Z,0.74
2018-02-19T04:42:27.704Z,0.88
2018-02-19T04:43:27.583Z,0.82
2018-02-19T04:44:27.538Z,0.80
2018-02-19T04:45:27.516Z,0.78
2018-02-19T04:47:27.541Z,0.76
2018-02-19T04:48:27.494Z,0.81
2018-02-19T04:49:27.418Z,0.81
2018-02-19T04:50:27.462Z,0.85
2018-02-19T04:51:27.384Z,0.80
2018-02-19T04:52:27.665Z,0.90
2018-02-19T04:53:27.316Z,0.84
2018-02-19T04:54:27.370Z,0.85
2018-02-19T04:55:27.342Z,0.82
2018-02-19T04:56:27.321Z,0.87
2018-02-19T04:57:27.218Z,0.88
2018-02-19T04:58:27.493Z,0.87
2018-02-19T04:59:27.228Z,0.81
2018-02-19T05:00:27.149Z,0.84
2018-02-19T05:01:27.120Z,0.85
2018-02-19T05:02:27.103Z,0.88
2018-02-19T05:03:27.072Z,0.87
2018-02-19T05:04:27.045Z,0.94
2018-02-19T05:05:27.324Z,0.82
2018-02-19T05:06:27.066Z,0.84
2018-02-19T05:07:26.971Z,0.84
2018-02-19T05:08:26.953Z,0.84
2018-02-19T05:09:26.925Z,0.78
2018-02-19T05:10:26.907Z,0.87
2018-02-19T05:11:26.880Z,0.78
2018-02-19T05:12:27.175Z,0.84
2018-02-19T05:13:26.899Z,0.78
2018-02-19T05:14:26.800Z,0.81
2018-02-19T05:15:26.827Z,0.88
2018-02-19T05:16:26.753Z,0.80
2018-02-19T05:17:26.728Z,0.85
2018-02-19T05:18:26.704Z,0.78
2018-02-19T05:19:26.978Z,0.78
2018-02-19T05:20:26.656Z,0.82
2018-02-19T05:21:26.680Z,0.82
2018-02-19T05:22:26.610Z,0.85
2018-02-19T05:23:26.662Z,0.82
2018-02-19T05:24:26.592Z,0.82
2018-02-19T05:25:26.556Z,0.84
2018-02-19T05:26:26.821Z,0.84
2018-02-19T05:27:26.560Z,0.85
2018-02-19T05:28:26.463Z,0.80
2018-02-19T05:29:26.432Z,0.85
2018-02-19T05:30:26.417Z,0.87
2018-02-19T05:31:26.455Z,0.76
2018-02-19T05:32:26.434Z,0.78
2018-02-19T05:33:26.706Z,0.84
2018-02-19T05:34:26.333Z,0.81
2018-02-19T05:35:26.284Z,0.85
2018-02-19T05:36:26.306Z,0.82
2018-02-19T05:37:26.328Z,0.90
2018-02-19T05:38:26.264Z,0.84
2018-02-19T05:39:26.257Z,0.92
2018-02-19T05:40:26.484Z,0.87
2018-02-19T05:41:26.144Z,0.88
2018-02-19T05:42:26.205Z,0.81
2018-02-19T05:43:26.184Z,0.81
2018-02-19T05:44:26.108Z,0.76
2018-02-19T05:45:26.079Z,0.85
2018-02-19T05:46:26.015Z,0.88
2018-02-19T05:47:26.289Z,0.82
2018-02-19T05:48:26.083Z,0.92
2018-02-19T05:49:26.059Z,0.81
2018-02-19T05:50:25.957Z,0.81
2018-02-19T05:51:25.975Z,0.84
2018-02-19T05:52:25.940Z,0.88
2018-02-19T05:53:26.143Z,0.85
2018-02-19T05:54:25.922Z,0.85
2018-02-19T05:55:25.872Z,0.91
2018-02-19T05:56:25.903Z,0.92
2018-02-19T05:57:25.948Z,0.91
2018-02-19T05:58:25.849Z,0.85
2018-02-19T05:59:26.319Z,0.87
2018-02-19T06:00:25.676Z,0.76
2018-02-19T06:01:25.824Z,0.81
2018-02-19T06:02:25.698Z,0.80
2018-02-19T06:03:25.672Z,0.87
2018-02-19T06:04:25.638Z,0.80
2018-02-19T06:05:25.859Z,0.80
2018-02-19T06:06:25.524Z,0.74
2018-02-19T06:07:25.530Z,0.84
2018-02-19T06:08:25.474Z,0.73
2018-02-19T06:09:25.453Z,0.76
2018-02-19T06:10:25.427Z,0.72
2018-02-19T06:11:25.698Z,0.76
2018-02-19T06:12:25.431Z,0.88
2018-02-19T06:13:25.350Z,0.87
2018-02-19T06:14:25.327Z,0.76
2018-02-19T06:15:25.527Z,0.78
2018-02-19T06:16:25.277Z,0.73
2018-02-19T06:17:25.553Z,0.74
2018-02-19T06:18:25.282Z,0.81
2018-02-19T06:19:25.212Z,0.74
2018-02-19T06:20:25.190Z,0.80
2018-02-19T06:21:25.158Z,0.87
2018-02-19T06:22:25.160Z,0.87
2018-02-19T06:23:25.401Z,0.81
2018-02-19T06:24:25.086Z,0.80
2018-02-19T06:25:25.143Z,0.74
2018-02-19T06:26:25.034Z,0.82
2018-02-19T06:27:25.010Z,0.78
2018-02-19T06:28:24.983Z,0.80
2018-02-19T06:29:24.962Z,0.80
2018-02-19T06:30:25.238Z,0.81
2018-02-19T06:31:24.918Z,0.81
2018-02-19T06:32:24.887Z,0.80
2018-02-19T06:33:24.916Z,0.87
2018-02-19T06:34:24.849Z,0.81
2018-02-19T06:35:25.132Z,0.90
2018-02-19T06:36:24.883Z,0.81
2018-02-19T06:37:25.358Z,0.90
2018-02-19T06:38:24.968Z,0.76
2018-02-19T06:39:24.966Z,0.81
2018-02-19T06:40:24.688Z,0.76
2018-02-19T06:41:24.665Z,0.87
2018-02-19T06:42:24.644Z,0.88
2018-02-19T06:43:24.694Z,0.84
2018-02-19T06:44:24.889Z,0.78
2018-02-19T06:45:24.569Z,0.84
2018-02-19T06:46:24.589Z,0.84
2018-02-19T06:47:24.518Z,0.84
2018-02-19T06:48:24.492Z,0.85
2018-02-19T06:49:24.474Z,0.87
2018-02-19T06:50:24.441Z,0.82
2018-02-19T06:51:24.719Z,0.94
2018-02-19T06:52:24.406Z,0.84
2018-02-19T06:53:24.394Z,0.90
2018-02-19T06:54:24.451Z,0.94
2018-02-19T06:55:24.322Z,0.88
2018-02-19T06:56:24.300Z,0.88
2018-02-19T06:57:24.350Z,0.96
2018-02-19T06:58:24.576Z,0.87
2018-02-19T06:59:24.291Z,0.98
2018-02-19T07:00:24.198Z,0.92
2018-02-19T07:01:24.194Z,0.91
2018-02-19T07:02:24.147Z,1.00
2018-02-19T07:03:24.210Z,0.96
2018-02-19T07:04:24.161Z,1.00
2018-02-19T07:05:24.390Z,0.99
2018-02-19T07:06:24.062Z,1.05
2018-02-19T07:07:24.089Z,1.05
2018-02-19T07:08:24.022Z,1.05
2018-02-19T07:09:23.980Z,1.02
2018-02-19T07:10:23.958Z,1.06
2018-02-19T07:11:24.484Z,1.03
2018-02-19T07:12:28.532Z,1.06
2018-02-19T07:13:24.018Z,1.05
2018-02-19T07:14:23.947Z,1.06
2018-02-19T07:15:24.131Z,1.12
2018-02-19T07:16:24.125Z,1.17
2018-02-19T07:17:24.271Z,1.09
2018-02-19T07:18:23.879Z,1.12
2018-02-19T07:19:23.743Z,1.16
2018-02-19T07:20:23.721Z,1.16
2018-02-19T07:21:23.692Z,1.18
2018-02-19T07:22:23.664Z,1.10
2018-02-19T07:23:23.990Z,1.18
2018-02-19T07:24:23.618Z,1.26
2018-02-19T07:25:23.600Z,1.21
2018-02-19T07:26:23.570Z,1.26
2018-02-19T07:27:23.590Z,1.20
2018-02-19T07:28:23.757Z,1.28
2018-02-19T07:29:23.892Z,1.27
2018-02-19T07:30:23.518Z,1.24
2018-02-19T07:31:23.564Z,1.24
2018-02-19T07:32:23.425Z,1.28
2018-02-19T07:33:23.400Z,1.28
2018-02-19T07:34:23.538Z,1.36
2018-02-19T07:35:23.655Z,1.34
2018-02-19T07:36:23.413Z,1.41
2018-02-19T07:37:23.389Z,1.42
2018-02-19T07:38:23.367Z,1.44
2018-02-19T07:39:23.349Z,1.44
2018-02-19T07:40:23.241Z,1.44
2018-02-19T07:41:23.511Z,1.46
2018-02-19T07:42:23.186Z,1.48
2018-02-19T07:43:23.172Z,1.49
2018-02-19T07:44:23.147Z,1.46
2018-02-19T07:45:23.123Z,1.59
2018-02-19T07:46:23.096Z,1.57
2018-02-19T07:47:23.379Z,1.60
2018-02-19T07:48:23.044Z,1.59
2018-02-19T07:49:23.019Z,1.62
2018-02-19T07:50:22.997Z,1.62
2018-02-19T07:51:22.990Z,1.64
2018-02-19T07:52:22.948Z,1.71
2018-02-19T07:53:22.925Z,1.73
2018-02-19T07:54:23.210Z,1.74
2018-02-19T07:55:22.881Z,1.80
2018-02-19T07:56:22.858Z,1.78
2018-02-19T07:57:22.838Z,1.78
2018-02-19T07:58:22.811Z,1.84
2018-02-19T07:59:22.788Z,1.81
2018-02-19T08:00:22.762Z,1.77
2018-02-19T08:01:23.039Z,1.75
2018-02-19T08:02:22.792Z,1.80
2018-02-19T08:03:22.826Z,1.78
2018-02-19T08:04:22.811Z,1.91
2018-02-19T08:05:22.820Z,1.82
2018-02-19T08:06:22.772Z,1.84
2018-02-19T08:07:22.647Z,1.93
2018-02-19T08:08:22.972Z,1.80
2018-02-19T08:09:22.729Z,1.84
2018-02-19T08:10:22.607Z,1.80
2018-02-19T08:11:22.512Z,1.92
2018-02-19T08:12:22.513Z,1.89
2018-02-19T08:13:22.467Z,1.89
2018-02-19T08:14:22.460Z,1.91
2018-02-19T08:15:22.723Z,1.85
2018-02-19T08:16:22.460Z,1.87
2018-02-19T08:17:22.397Z,1.93
2018-02-19T08:18:22.418Z,2.01
2018-02-19T08:19:22.327Z,2.03
2018-02-19T08:20:22.441Z,1.93
2018-02-19T08:21:22.280Z,2.00
2018-02-19T08:22:22.569Z,1.97
2018-02-19T08:23:22.361Z,2.01
2018-02-19T08:24:22.217Z,2.00
2018-02-19T08:25:22.189Z,2.04
2018-02-19T08:26:22.166Z,2.07
2018-02-19T08:27:22.141Z,2.03
2018-02-19T08:28:22.169Z,2.01
2018-02-19T08:29:22.405Z,2.00
2018-02-19T08:30:22.079Z,2.00
2018-02-19T08:31:22.111Z,2.06
2018-02-19T08:32:22.028Z,2.07
2018-02-19T08:33:22.010Z,2.04
2018-02-19T08:34:22.111Z,2.04
2018-02-19T08:35:22.271Z,2.14
2018-02-19T08:36:21.945Z,2.12
2018-02-19T08:37:21.916Z,2.12
2018-02-19T08:38:21.893Z,2.14
2018-02-19T08:39:21.876Z,2.14
2018-02-19T08:40:22.054Z,2.18
2018-02-19T08:41:22.123Z,2.15
2018-02-19T08:42:21.871Z,2.14
2018-02-19T08:43:21.782Z,2.17
2018-02-19T08:44:21.766Z,2.18
2018-02-19T08:45:21.737Z,2.28
2018-02-19T08:46:21.832Z,2.25
2018-02-19T08:47:22.177Z,2.25
2018-02-19T08:48:21.669Z,2.25
2018-02-19T08:49:21.647Z,2.29
2018-02-19T08:50:21.624Z,2.30
2018-02-19T08:51:21.602Z,2.40
2018-02-19T08:52:21.586Z,2.40
2018-02-19T08:53:21.858Z,2.42
2018-02-19T08:54:21.584Z,2.55
2018-02-19T08:55:21.510Z,2.45
2018-02-19T08:56:21.584Z,2.50
2018-02-19T08:57:21.513Z,2.54
2018-02-19T08:58:21.636Z,2.51
2018-02-19T08:59:21.722Z,2.60
2018-02-19T09:00:21.539Z,2.58
2018-02-19T09:01:21.502Z,2.65
2018-02-19T09:02:21.393Z,2.68
2018-02-19T09:03:21.457Z,2.71
2018-02-19T09:04:21.429Z,2.72
2018-02-19T09:05:21.732Z,2.75
2018-02-19T09:06:21.393Z,2.72
2018-02-19T09:07:21.374Z,2.75
2018-02-19T09:08:21.436Z,2.75
2018-02-19T09:09:21.202Z,2.71
2018-02-19T09:10:21.184Z,2.87
2018-02-19T09:11:21.464Z,2.90
2018-02-19T09:12:21.142Z,2.90
2018-02-19T09:13:21.117Z,2.91
2018-02-19T09:14:21.142Z,2.91
2018-02-19T09:15:21.094Z,2.94
2018-02-19T09:16:21.124Z,2.90
2018-02-19T09:17:21.035Z,2.99
2018-02-19T09:18:21.344Z,3.08
2018-02-19T09:19:21.068Z,3.07
2018-02-19T09:20:20.977Z,3.09
2018-02-19T09:21:20.946Z,3.20
2018-02-19T09:22:20.943Z,3.23
2018-02-19T09:23:20.904Z,3.27
2018-02-19T09:24:20.947Z,3.25
2018-02-19T09:25:21.180Z,3.27
2018-02-19T09:26:20.837Z,3.27
2018-02-19T09:27:20.815Z,3.41
2018-02-19T09:28:20.847Z,3.32
2018-02-19T09:29:20.827Z,3.35
2018-02-19T09:30:20.773Z,3.33
2018-02-19T09:31:20.734Z,3.30
2018-02-19T09:32:21.013Z,3.32
2018-02-19T09:33:20.693Z,3.41
2018-02-19T09:34:20.670Z,3.46
2018-02-19T09:35:20.649Z,3.51
2018-02-19T09:36:20.630Z,3.48
2018-02-19T09:37:20.614Z,3.52
2018-02-19T09:38:20.604Z,3.78
2018-02-19T09:39:20.985Z,3.80
2018-02-19T09:40:20.662Z,3.82
2018-02-19T09:41:20.622Z,3.84
2018-02-19T09:42:20.506Z,3.91
2018-02-19T09:43:20.485Z,3.98
2018-02-19T09:44:20.463Z,3.90
2018-02-19T09:45:20.447Z,3.84
2018-02-19T09:46:20.724Z,4.05
2018-02-19T09:47:20.411Z,3.87
2018-02-19T09:48:20.382Z,3.85
2018-02-19T09:49:20.368Z,4.08
2018-02-19T09:50:20.343Z,4.06
2018-02-19T09:51:20.321Z,4.10
2018-02-19T09:52:20.304Z,4.00
2018-02-19T09:53:20.588Z,4.16
2018-02-19T09:54:20.265Z,4.16
2018-02-19T09:55:20.245Z,4.20
2018-02-19T09:56:20.224Z,4.27
2018-02-19T09:57:20.204Z,4.41
2018-02-19T09:58:20.234Z,4.43
2018-02-19T09:59:20.184Z,4.30
2018-02-19T10:00:20.486Z,4.03
2018-02-19T10:01:20.205Z,4.12
2018-02-19T10:02:20.115Z,4.09
2018-02-19T10:03:20.090Z,4.03
2018-02-19T10:04:20.242Z,4.10
2018-02-19T10:05:20.162Z,3.92
2018-02-19T10:06:20.434Z,3.94
2018-02-19T10:07:20.112Z,3.85
2018-02-19T10:08:19.991Z,3.82
2018-02-19T10:09:19.970Z,3.76
2018-02-19T10:10:20.039Z,3.98
2018-02-19T10:11:19.935Z,4.10
2018-02-19T10:12:20.214Z,4.12
2018-02-19T10:13:19.898Z,4.10
2018-02-19T10:14:19.881Z,4.13
2018-02-19T10:15:19.859Z,4.10
2018-02-19T10:16:19.838Z,4.24
2018-02-19T10:17:19.942Z,4.23
2018-02-19T10:18:20.097Z,4.26
2018-02-19T10:19:19.784Z,4.43
2018-02-19T10:20:19.765Z,4.34
2018-02-19T10:21:19.739Z,4.39
2018-02-19T10:22:19.722Z,4.26
2018-02-19T10:23:19.832Z,4.49
2018-02-19T10:24:20.191Z,4.56
2018-02-19T10:25:19.793Z,4.74
2018-02-19T10:26:19.763Z,4.74
2018-02-19T10:27:19.631Z,4.71
2018-02-19T10:28:19.616Z,4.74
2018-02-19T10:29:19.589Z,4.88
2018-02-19T10:30:19.920Z,5.07
2018-02-19T10:31:19.551Z,5.14
2018-02-19T10:32:19.529Z,5.24
2018-02-19T10:33:19.510Z,5.14
2018-02-19T10:34:19.516Z,5.03
2018-02-19T10:35:19.527Z,4.89
2018-02-19T10:36:19.876Z,4.94
2018-02-19T10:37:19.443Z,5.09
2018-02-19T10:38:19.424Z,5.24
2018-02-19T10:39:19.534Z,5.41
2018-02-19T10:40:19.380Z,5.57
2018-02-19T10:41:19.412Z,5.69
2018-02-19T10:42:19.355Z,5.88
2018-02-19T10:43:19.684Z,6.02
2018-02-19T10:44:19.310Z,5.77
2018-02-19T10:45:19.290Z,5.98
2018-02-19T10:46:19.274Z,6.13
2018-02-19T10:47:19.269Z,6.46
2018-02-19T10:48:19.238Z,6.52
2018-02-19T10:49:19.216Z,6.71
2018-02-19T10:50:19.526Z,6.37
2018-02-19T10:51:19.259Z,6.57
2018-02-19T10:52:19.190Z,6.60
2018-02-19T10:53:19.224Z,6.37
2018-02-19T10:54:19.233Z,6.19
2018-02-19T10:55:19.211Z,6.32
2018-02-19T10:56:19.505Z,6.52
2018-02-19T10:57:19.428Z,6.43
2018-02-19T10:58:19.068Z,6.60
2018-02-19T10:59:19.048Z,6.53
2018-02-19T11:00:19.030Z,6.61
2018-02-19T11:01:19.015Z,6.75
2018-02-19T11:02:19.005Z,6.60
2018-02-19T11:03:18.982Z,6.74
2018-02-19T11:04:19.312Z,6.91
2018-02-19T11:05:18.970Z,6.91
2018-02-19T11:06:19.001Z,6.82
2018-02-19T11:07:18.943Z,6.79
2018-02-19T11:08:18.909Z,6.60
2018-02-19T11:09:18.883Z,6.46
2018-02-19T11:10:18.872Z,6.45
2018-02-19T11:11:19.163Z,6.35
2018-02-19T11:12:18.909Z,6.45
2018-02-19T11:13:18.881Z,6.24
2018-02-19T11:14:18.818Z,6.31
2018-02-19T11:15:18.788Z,6.25
2018-02-19T11:16:18.775Z,6.19
2018-02-19T11:17:18.862Z,6.53
2018-02-19T11:18:19.046Z,6.50
2018-02-19T11:19:18.729Z,6.45
2018-02-19T11:20:18.721Z,6.37
2018-02-19T11:21:18.692Z,6.05
2018-02-19T11:22:18.762Z,6.15
2018-02-19T11:23:18.662Z,6.43
2018-02-19T11:24:18.737Z,6.42
2018-02-19T11:25:19.166Z,6.61
2018-02-19T11:26:18.628Z,6.68
2018-02-19T11:27:18.596Z,6.78
2018-02-19T11:28:18.599Z,6.68
2018-02-19T11:29:18.564Z,6.65
2018-02-19T11:30:18.631Z,6.73
2018-02-19T11:31:18.915Z,6.89
2018-02-19T11:32:18.538Z,6.70
2018-02-19T11:33:18.603Z,6.68
2018-02-19T11:34:18.576Z,6.75
2018-02-19T11:35:18.524Z,6.40
2018-02-19T11:36:18.454Z,6.16
2018-02-19T11:37:18.741Z,6.30
2018-02-19T11:38:18.426Z,6.30
2018-02-19T11:39:18.414Z,6.13
2018-02-19T11:40:18.446Z,5.94
2018-02-19T11:41:18.376Z,6.00
2018-02-19T11:42:18.363Z,6.09
2018-02-19T11:43:18.648Z,5.77
2018-02-19T11:44:18.332Z,5.94
2018-02-19T11:45:18.371Z,5.97
2018-02-19T11:46:18.305Z,6.13
2018-02-19T11:47:18.329Z,6.13
2018-02-19T11:48:18.357Z,6.34
2018-02-19T11:49:18.615Z,6.43
2018-02-19T11:50:18.230Z,6.46
2018-02-19T11:51:18.212Z,6.53
2018-02-19T11:52:18.203Z,6.63
2018-02-19T11:53:18.185Z,6.71
2018-02-19T11:54:18.176Z,6.88
2018-02-19T11:55:18.149Z,6.82
2018-02-19T11:56:18.182Z,6.75
2018-02-19T11:57:18.119Z,6.71
2018-02-19T11:58:18.112Z,6.71
2018-02-19T11:59:18.082Z,6.60
2018-02-19T12:00:18.075Z,6.16
2018-02-19T12:01:18.358Z,6.46
2018-02-19T12:02:18.127Z,6.68
2018-02-19T12:03:18.071Z,6.82
2018-02-19T12:04:18.004Z,6.99
2018-02-19T12:05:17.996Z,7.15
2018-02-19T12:06:20.926Z,7.01
2018-02-19T12:07:18.256Z,6.85
2018-02-19T12:08:17.938Z,7.03
2018-02-19T12:09:17.924Z,6.92
2018-02-19T12:10:17.906Z,7.31
2018-02-19T12:11:17.892Z,7.58
2018-02-19T12:12:17.911Z,7.91
2018-02-19T12:13:17.867Z,8.38
2018-02-19T12:14:18.145Z,8.23
2018-02-19T12:15:17.828Z,8.19
2018-02-19T12:16:17.838Z,7.98
2018-02-19T12:17:17.866Z,8.09
2018-02-19T12:18:17.779Z,8.17
2018-02-19T12:19:17.834Z,8.21
2018-02-19T12:20:17.776Z,8.55
2018-02-19T12:21:18.109Z,8.65
2018-02-19T12:22:17.720Z,8.93
2018-02-19T12:24:17.708Z,8.44
2018-02-19T12:25:17.681Z,7.86
2018-02-19T12:26:17.667Z,7.68
2018-02-19T12:27:17.648Z,8.20
2018-02-19T12:28:17.929Z,8.70
2018-02-19T12:29:17.619Z,8.77
2018-02-19T12:30:17.603Z,9.12
2018-02-19T12:31:17.584Z,9.41
2018-02-19T12:32:17.628Z,9.60
2018-02-19T12:33:17.641Z,9.75
2018-02-19T12:34:18.232Z,10.10
2018-02-19T12:35:17.826Z,9.94
2018-02-19T12:36:17.515Z,10.10
2018-02-19T12:37:17.582Z,10.35
2018-02-19T12:38:17.571Z,10.18
2018-02-19T12:39:17.568Z,9.99
2018-02-19T12:40:17.633Z,10.14
2018-02-19T12:41:17.582Z,9.80
2018-02-19T12:42:17.983Z,9.98
2018-02-19T12:43:17.551Z,9.87
2018-02-19T12:44:17.402Z,9.12
2018-02-19T12:45:17.443Z,9.19
2018-02-19T12:46:17.387Z,9.47
2018-02-19T12:47:17.364Z,10.05
2018-02-19T12:48:17.357Z,10.60
2018-02-19T12:49:17.648Z,10.95
2018-02-19T12:50:17.583Z,10.52
2018-02-19T12:51:17.362Z,10.75
2018-02-19T12:52:17.300Z,10.78
2018-02-19T12:53:17.448Z,10.38
2018-02-19T12:54:17.276Z,10.26
2018-02-19T12:55:17.325Z,10.61
2018-02-19T12:56:17.649Z,10.73
2018-02-19T12:57:17.419Z,10.91
2018-02-19T12:58:17.276Z,10.58
2018-02-19T12:59:17.308Z,10.87
2018-02-19T13:00:17.207Z,11.05
2018-02-19T13:01:17.302Z,11.43
2018-02-19T13:02:17.552Z,11.93
2018-02-19T13:03:17.174Z,11.71
2018-02-19T13:04:17.158Z,11.56
2018-02-19T13:05:17.148Z,11.33
2018-02-19T13:06:17.234Z,11.55
2018-02-19T13:07:17.134Z,11.40
2018-02-19T13:08:17.422Z,11.73
2018-02-19T13:09:17.106Z,11.95
2018-02-19T13:10:17.201Z,11.30
2018-02-19T13:11:17.084Z,11.56
2018-02-19T13:12:17.072Z,10.98
2018-02-19T13:13:17.064Z,11.00
2018-02-19T13:14:17.356Z,11.04
2018-02-19T13:15:17.043Z,10.94
2018-02-19T13:16:17.067Z,11.23
2018-02-19T13:17:17.072Z,11.80
2018-02-19T13:18:17.012Z,12.04
2018-02-19T13:19:17.136Z,12.30
2018-02-19T13:20:17.292Z,11.76
2018-02-19T13:21:16.992Z,11.11
2018-02-19T13:22:17.023Z,10.62
2018-02-19T13:23:17.045Z,10.98
2018-02-19T13:24:16.953Z,11.03
2018-02-19T13:25:16.959Z,11.55
2018-02-19T13:26:17.408Z,11.80
2018-02-19T13:27:16.923Z,11.76
2018-02-19T13:28:17.173Z,11.99
2018-02-19T13:29:16.908Z,11.84
2018-02-19T13:30:16.898Z,10.94
2018-02-19T13:31:16.896Z,10.72
2018-02-19T13:32:17.175Z,9.75
2018-02-19T13:33:16.867Z,10.01
2018-02-19T13:34:16.863Z,10.64
2018-02-19T13:35:16.862Z,10.85
2018-02-19T13:36:16.835Z,11.20
2018-02-19T13:37:17.333Z,11.19
2018-02-19T13:38:17.115Z,11.48
2018-02-19T13:39:16.909Z,11.91
2018-02-19T13:40:16.805Z,11.43
2018-02-19T13:41:16.820Z,11.84
2018-02-19T13:42:16.793Z,10.97
2018-02-19T13:43:16.768Z,10.75
2018-02-19T13:44:16.818Z,10.67
2018-02-19T13:45:17.061Z,10.67
2018-02-19T13:46:16.739Z,10.70
2018-02-19T13:47:16.730Z,10.64
2018-02-19T13:48:16.731Z,10.62
2018-02-19T13:49:16.710Z,10.35
2018-02-19T13:50:16.696Z,11.11
2018-02-19T13:51:16.693Z,11.27
2018-02-19T13:52:16.984Z,11.00
2018-02-19T13:53:16.672Z,11.08
2018-02-19T13:54:19.694Z,10.95
2018-02-19T13:55:16.656Z,11.43
2018-02-19T13:56:49.912Z,11.93
2018-02-19T13:57:16.830Z,11.91
2018-02-19T13:58:16.789Z,11.34
2018-02-19T13:59:16.911Z,11.12
2018-02-19T14:00:16.595Z,11.25
2018-02-19T14:02:16.585Z,11.74
2018-02-19T14:03:16.653Z,11.88
2018-02-19T14:04:16.556Z,12.22
2018-02-19T14:05:16.615Z,11.34
2018-02-19T14:06:17.267Z,10.87
2018-02-19T14:07:16.575Z,11.36
2018-02-19T14:08:16.517Z,11.33
2018-02-19T14:09:16.509Z,11.58
2018-02-19T14:10:16.501Z,11.45
2018-02-19T14:11:16.503Z,11.34
2018-02-19T14:12:16.478Z,10.73
2018-02-19T14:13:16.858Z,10.95
2018-02-19T14:14:16.556Z,10.24
2018-02-19T14:15:16.502Z,10.01
2018-02-19T14:16:16.493Z,9.87
2018-02-19T14:17:16.432Z,10.21
2018-02-19T14:18:16.425Z,10.17
2018-02-19T14:19:16.418Z,10.03
2018-02-19T14:20:16.735Z,10.48
2018-02-19T14:21:16.392Z,10.49